sensor_id;sensor_type;location;lat;lon;timestamp;pressure;altitude;pressure_sealevel;temperature;humidity
11440;BME280;5776;51.814;4.510;2022-10-16T00:00:31;100949.09;;;13.50;100.00
11440;BME280;5776;51.814;4.510;2022-10-16T00:02:57;100965.44;;;13.50;100.00
11440;BME280;5776;51.814;4.510;2022-10-16T00:05:23;100963.53;;;13.50;100.00
11440;BME280;5776;51.814;4.510;2022-10-16T00:07:49;100956.94;;;13.51;100.00
11440;BME280;5776;51.814;4.510;2022-10-16T00:10:15;100971.09;;;13.53;100.00
11440;BME280;5776;51.814;4.510;2022-10-16T00:12:41;100960.97;;;13.54;100.00
11440;BME280;5776;51.814;4.510;2022-10-16T00:15:07;100957.44;;;13.53;100.00
11440;BME280;5776;51.814;4.510;2022-10-16T00:17:33;100961.31;;;13.52;100.00
11440;BME280;5776;51.814;4.510;2022-10-16T00:19:59;100968.38;;;13.53;100.00
11440;BME280;5776;51.814;4.510;2022-10-16T00:22:25;100971.09;;;13.53;100.00
11440;BME280;5776;51.814;4.510;2022-10-16T00:24:52;100977.34;;;13.54;100.00
11440;BME280;5776;51.814;4.510;2022-10-16T00:27:18;100970.00;;;13.54;100.00
11440;BME280;5776;51.814;4.510;2022-10-16T00:29:44;100971.09;;;13.53;100.00
11440;BME280;5776;51.814;4.510;2022-10-16T00:32:10;100977.34;;;13.54;100.00
11440;BME280;5776;51.814;4.510;2022-10-16T00:34:35;100983.94;;;13.53;100.00
11440;BME280;5776;51.814;4.510;2022-10-16T00:37:02;100993.72;;;13.54;100.00
11440;BME280;5776;51.814;4.510;2022-10-16T00:39:28;100992.91;;;13.53;100.00
11440;BME280;5776;51.814;4.510;2022-10-16T00:41:54;100999.19;;;13.54;100.00
11440;BME280;5776;51.814;4.510;2022-10-16T00:47:13;100993.72;;;13.54;100.00
11440;BME280;5776;51.814;4.510;2022-10-16T00:49:41;100995.38;;;13.55;100.00
11440;BME280;5776;51.814;4.510;2022-10-16T00:52:07;100985.53;;;13.54;100.00
11440;BME280;5776;51.814;4.510;2022-10-16T00:54:33;100959.09;;;13.54;100.00
11440;BME280;5776;51.814;4.510;2022-10-16T00:57:05;100926.94;;;13.51;100.00
11440;BME280;5776;51.814;4.510;2022-10-16T00:59:35;100945.56;;;13.49;100.00
11440;BME280;5776;51.814;4.510;2022-10-16T01:02:03;100938.97;;;13.50;100.00
11440;BME280;5776;51.814;4.510;2022-10-16T01:04:35;100943.63;;;13.50;100.00
11440;BME280;5776;51.814;4.510;2022-10-16T01:07:06;100953.75;;;13.49;100.00
11440;BME280;5776;51.814;4.510;2022-10-16T01:10:03;100954.53;;;13.50;100.00
11440;BME280;5776;51.814;4.510;2022-10-16T01:15:17;100943.41;;;13.46;100.00
11440;BME280;5776;51.814;4.510;2022-10-16T01:18:00;100951.59;;;13.46;100.00
11440;BME280;5776;51.814;4.510;2022-10-16T01:23:10;100950.78;;;13.46;100.00
11440;BME280;5776;51.814;4.510;2022-10-16T01:25:59;100957.38;;;13.45;100.00
11440;BME280;5776;51.814;4.510;2022-10-16T01:29:03;100958.19;;;13.45;100.00
11440;BME280;5776;51.814;4.510;2022-10-16T01:31:29;100967.44;;;13.44;100.00
11440;BME280;5776;51.814;4.510;2022-10-16T01:34:07;100964.72;;;13.44;100.00
11440;BME280;5776;51.814;4.510;2022-10-16T01:36:39;100952.50;;;13.42;100.00
11440;BME280;5776;51.814;4.510;2022-10-16T01:39:10;100960.69;;;13.42;100.00
11440;BME280;5776;51.814;4.510;2022-10-16T01:41:43;100967.25;;;13.40;100.00
11440;BME280;5776;51.814;4.510;2022-10-16T01:44:14;100966.47;;;13.40;100.00
11440;BME280;5776;51.814;4.510;2022-10-16T01:46:43;100961.00;;;13.40;100.00
11440;BME280;5776;51.814;4.510;2022-10-16T01:49:11;100960.50;;;13.38;100.00
11440;BME280;5776;51.814;4.510;2022-10-16T01:51:38;100964.34;;;13.37;100.00
11440;BME280;5776;51.814;4.510;2022-10-16T01:54:07;100971.69;;;13.36;100.00
11440;BME280;5776;51.814;4.510;2022-10-16T01:56:34;100966.25;;;13.36;100.00
11440;BME280;5776;51.814;4.510;2022-10-16T01:59:12;100964.63;;;13.35;100.00
11440;BME280;5776;51.814;4.510;2022-10-16T02:01:43;100969.28;;;13.35;100.00
11440;BME280;5776;51.814;4.510;2022-10-16T02:04:33;100971.22;;;13.34;100.00
11440;BME280;5776;51.814;4.510;2022-10-16T02:07:00;100980.72;;;13.37;100.00
11440;BME280;5776;51.814;4.510;2022-10-16T02:09:26;100981.00;;;13.35;100.00
11440;BME280;5776;51.814;4.510;2022-10-16T02:11:54;100970.91;;;13.36;100.00
11440;BME280;5776;51.814;4.510;2022-10-16T02:14:23;100978.00;;;13.37;100.00
11440;BME280;5776;51.814;4.510;2022-10-16T02:16:50;100962.72;;;13.36;100.00
11440;BME280;5776;51.814;4.510;2022-10-16T02:19:17;100963.03;;;13.34;100.00
11440;BME280;5776;51.814;4.510;2022-10-16T02:21:51;100970.38;;;13.34;100.00
11440;BME280;5776;51.814;4.510;2022-10-16T02:27:05;100966.56;;;13.35;100.00
11440;BME280;5776;51.814;4.510;2022-10-16T02:29:36;100976.69;;;13.34;100.00
11440;BME280;5776;51.814;4.510;2022-10-16T02:32:05;100975.84;;;13.34;100.00
11440;BME280;5776;51.814;4.510;2022-10-16T02:34:35;100981.31;;;13.34;100.00
11440;BME280;5776;51.814;4.510;2022-10-16T02:37:03;100980.50;;;13.33;100.00
11440;BME280;5776;51.814;4.510;2022-10-16T02:39:31;100984.03;;;13.34;100.00
11440;BME280;5776;51.814;4.510;2022-10-16T02:41:57;100989.47;;;13.34;100.00
11440;BME280;5776;51.814;4.510;2022-10-16T02:44:22;100994.13;;;13.33;100.00
11440;BME280;5776;51.814;4.510;2022-10-16T02:46:48;100986.75;;;13.34;100.00
11440;BME280;5776;51.814;4.510;2022-10-16T02:49:14;100981.63;;;13.32;100.00
11440;BME280;5776;51.814;4.510;2022-10-16T02:51:40;100976.97;;;13.33;100.00
11440;BME280;5776;51.814;4.510;2022-10-16T02:54:06;100972.63;;;13.32;100.00
11440;BME280;5776;51.814;4.510;2022-10-16T02:56:32;100966.66;;;13.30;100.00
11440;BME280;5776;51.814;4.510;2022-10-16T02:58:58;100967.75;;;13.29;100.00
11440;BME280;5776;51.814;4.510;2022-10-16T03:01:24;100973.22;;;13.29;100.00
11440;BME280;5776;51.814;4.510;2022-10-16T03:03:50;100967.75;;;13.29;100.00
11440;BME280;5776;51.814;4.510;2022-10-16T03:06:16;100970.81;;;13.27;100.00
11440;BME280;5776;51.814;4.510;2022-10-16T03:08:42;100980.59;;;13.28;100.00
11440;BME280;5776;51.814;4.510;2022-10-16T03:11:08;100980.59;;;13.28;100.00
11440;BME280;5776;51.814;4.510;2022-10-16T03:13:34;100984.13;;;13.29;100.00
11440;BME280;5776;51.814;4.510;2022-10-16T03:16:00;100998.88;;;13.28;100.00
11440;BME280;5776;51.814;4.510;2022-10-16T03:18:26;101000.81;;;13.27;100.00
11440;BME280;5776;51.814;4.510;2022-10-16T03:20:52;101007.88;;;13.28;100.00
11440;BME280;5776;51.814;4.510;2022-10-16T03:23:18;101013.66;;;13.27;100.00
11440;BME280;5776;51.814;4.510;2022-10-16T03:25:44;101005.47;;;13.27;100.00
11440;BME280;5776;51.814;4.510;2022-10-16T03:28:10;101007.34;;;13.26;100.00
11440;BME280;5776;51.814;4.510;2022-10-16T03:30:35;101011.19;;;13.25;100.00
11440;BME280;5776;51.814;4.510;2022-10-16T03:33:01;100999.16;;;13.26;100.00
11440;BME280;5776;51.814;4.510;2022-10-16T03:35:27;101010.06;;;13.26;100.00
11440;BME280;5776;51.814;4.510;2022-10-16T03:37:53;101014.72;;;13.26;100.00
11440;BME280;5776;51.814;4.510;2022-10-16T03:40:19;101011.19;;;13.25;100.00
11440;BME280;5776;51.814;4.510;2022-10-16T03:42:45;101013.91;;;13.25;100.00
11440;BME280;5776;51.814;4.510;2022-10-16T03:45:11;101024.00;;;13.25;100.00
11440;BME280;5776;51.814;4.510;2022-10-16T03:47:37;101019.66;;;13.24;100.00
11440;BME280;5776;51.814;4.510;2022-10-16T03:50:04;101021.56;;;13.23;100.00
11440;BME280;5776;51.814;4.510;2022-10-16T03:52:30;101023.22;;;13.24;100.00
11440;BME280;5776;51.814;4.510;2022-10-16T03:54:57;101036.84;;;13.24;100.00
11440;BME280;5776;51.814;4.510;2022-10-16T03:57:23;101025.09;;;13.24;100.00
11440;BME280;5776;51.814;4.510;2022-10-16T03:59:49;101025.44;;;13.22;100.00
11440;BME280;5776;51.814;4.510;2022-10-16T04:02:15;101022.38;;;13.24;100.00
11440;BME280;5776;51.814;4.510;2022-10-16T04:04:41;101039.06;;;13.22;100.00
11440;BME280;5776;51.814;4.510;2022-10-16T04:07:07;101032.47;;;13.23;100.00
11440;BME280;5776;51.814;4.510;2022-10-16T04:09:33;101030.03;;;13.22;100.00
11440;BME280;5776;51.814;4.510;2022-10-16T04:11:59;101030.03;;;13.22;100.00
11440;BME280;5776;51.814;4.510;2022-10-16T04:14:25;101034.69;;;13.21;100.00
11440;BME280;5776;51.814;4.510;2022-10-16T04:16:51;101030.03;;;13.22;100.00
11440;BME280;5776;51.814;4.510;2022-10-16T04:19:17;101044.81;;;13.21;100.00
11440;BME280;5776;51.814;4.510;2022-10-16T04:21:42;101047.53;;;13.21;100.00
11440;BME280;5776;51.814;4.510;2022-10-16T04:24:08;101050.56;;;13.19;100.00
11440;BME280;5776;51.814;4.510;2022-10-16T04:26:34;101047.03;;;13.18;100.00
11440;BME280;5776;51.814;4.510;2022-10-16T04:29:00;101056.00;;;13.19;100.00
11440;BME280;5776;51.814;4.510;2022-10-16T04:31:26;101058.25;;;13.17;100.00
11440;BME280;5776;51.814;4.510;2022-10-16T04:33:52;101062.56;;;13.18;100.00
11440;BME280;5776;51.814;4.510;2022-10-16T04:36:18;101072.69;;;13.17;100.00
11440;BME280;5776;51.814;4.510;2022-10-16T04:38:44;101073.78;;;13.16;100.00
11440;BME280;5776;51.814;4.510;2022-10-16T04:41:10;101080.34;;;13.15;100.00
11440;BME280;5776;51.814;4.510;2022-10-16T04:43:36;101087.72;;;13.15;100.00
11440;BME280;5776;51.814;4.510;2022-10-16T04:46:02;101088.81;;;13.14;100.00
11440;BME280;5776;51.814;4.510;2022-10-16T04:48:30;101102.44;;;13.14;100.00
11440;BME280;5776;51.814;4.510;2022-10-16T04:50:56;101098.91;;;13.13;100.00
11440;BME280;5776;51.814;4.510;2022-10-16T04:53:22;101098.91;;;13.13;100.00
11440;BME280;5776;51.814;4.510;2022-10-16T04:55:49;101106.00;;;13.14;100.00
11440;BME280;5776;51.814;4.510;2022-10-16T04:58:15;101104.91;;;13.15;100.00
11440;BME280;5776;51.814;4.510;2022-10-16T05:00:41;101106.00;;;13.14;100.00
11440;BME280;5776;51.814;4.510;2022-10-16T05:03:07;101111.47;;;13.14;100.00
11440;BME280;5776;51.814;4.510;2022-10-16T05:05:35;101113.34;;;13.14;100.00
11440;BME280;5776;51.814;4.510;2022-10-16T05:08:02;101112.28;;;13.15;100.00
11440;BME280;5776;51.814;4.510;2022-10-16T05:10:28;101117.22;;;13.13;100.00
11440;BME280;5776;51.814;4.510;2022-10-16T05:12:54;101114.19;;;13.14;100.00
11440;BME280;5776;51.814;4.510;2022-10-16T05:15:19;101118.53;;;13.15;100.00
11440;BME280;5776;51.814;4.510;2022-10-16T05:17:45;101124.78;;;13.16;100.00
11440;BME280;5776;51.814;4.510;2022-10-16T05:20:12;101121.53;;;13.14;100.00
11440;BME280;5776;51.814;4.510;2022-10-16T05:22:37;101134.09;;;13.15;100.00
11440;BME280;5776;51.814;4.510;2022-10-16T05:25:04;101136.00;;;13.14;100.00
11440;BME280;5776;51.814;4.510;2022-10-16T05:27:30;101133.28;;;13.14;100.00
11440;BME280;5776;51.814;4.510;2022-10-16T05:29:56;101143.88;;;13.16;100.00
11440;BME280;5776;51.814;4.510;2022-10-16T05:32:22;101146.59;;;13.16;100.00
11440;BME280;5776;51.814;4.510;2022-10-16T05:34:48;101145.78;;;13.15;100.00
11440;BME280;5776;51.814;4.510;2022-10-16T05:37:14;101151.25;;;13.15;100.00
11440;BME280;5776;51.814;4.510;2022-10-16T05:39:40;101151.25;;;13.15;100.00
11440;BME280;5776;51.814;4.510;2022-10-16T05:42:06;101155.91;;;13.15;100.00
11440;BME280;5776;51.814;4.510;2022-10-16T05:44:32;101164.38;;;13.13;100.00
11440;BME280;5776;51.814;4.510;2022-10-16T05:46:58;101181.25;;;13.15;100.00
11440;BME280;5776;51.814;4.510;2022-10-16T05:49:24;101168.72;;;13.14;100.00
11440;BME280;5776;51.814;4.510;2022-10-16T05:51:50;101185.09;;;13.14;100.00
11440;BME280;5776;51.814;4.510;2022-10-16T05:54:16;101183.19;;;13.15;100.00
11440;BME280;5776;51.814;4.510;2022-10-16T05:56:42;101192.97;;;13.16;100.00
11440;BME280;5776;51.814;4.510;2022-10-16T05:59:08;101197.91;;;13.14;100.00
11440;BME280;5776;51.814;4.510;2022-10-16T06:01:34;101206.91;;;13.14;100.00
11440;BME280;5776;51.814;4.510;2022-10-16T06:04:01;101204.19;;;13.14;100.00
11440;BME280;5776;51.814;4.510;2022-10-16T06:06:28;101204.19;;;13.14;100.00
11440;BME280;5776;51.814;4.510;2022-10-16T06:08:56;101203.06;;;13.15;100.00
11440;BME280;5776;51.814;4.510;2022-10-16T06:11:27;101213.16;;;13.15;100.00
11440;BME280;5776;51.814;4.510;2022-10-16T06:13:56;101217.81;;;13.14;100.00
11440;BME280;5776;51.814;4.510;2022-10-16T06:16:23;101217.81;;;13.14;100.00
11440;BME280;5776;51.814;4.510;2022-10-16T06:18:51;101226.00;;;13.14;100.00
11440;BME280;5776;51.814;4.510;2022-10-16T06:21:20;101227.63;;;13.15;100.00
11440;BME280;5776;51.814;4.510;2022-10-16T06:23:47;101230.63;;;13.14;100.00
11440;BME280;5776;51.814;4.510;2022-10-16T06:26:17;101237.72;;;13.15;100.00
11440;BME280;5776;51.814;4.510;2022-10-16T06:28:43;101233.34;;;13.14;100.00
11440;BME280;5776;51.814;4.510;2022-10-16T06:31:10;101229.00;;;13.13;100.00
11440;BME280;5776;51.814;4.510;2022-10-16T06:33:37;101218.91;;;13.13;100.00
11440;BME280;5776;51.814;4.510;2022-10-16T06:36:12;101224.09;;;13.15;100.00
11440;BME280;5776;51.814;4.510;2022-10-16T06:38:38;101233.88;;;13.16;100.00
11440;BME280;5776;51.814;4.510;2022-10-16T06:41:06;101231.06;;;13.21;100.00
11440;BME280;5776;51.814;4.510;2022-10-16T06:43:32;101233.50;;;13.23;100.00
11440;BME280;5776;51.814;4.510;2022-10-16T06:45:59;101229.66;;;13.24;100.00
11440;BME280;5776;51.814;4.510;2022-10-16T06:48:25;101240.56;;;13.24;100.00
11440;BME280;5776;51.814;4.510;2022-10-16T06:53:30;101246.28;;;13.27;100.00
11440;BME280;5776;51.814;4.510;2022-10-16T06:55:57;101250.94;;;13.27;100.00
11440;BME280;5776;51.814;4.510;2022-10-16T06:58:23;101256.41;;;13.27;100.00
11440;BME280;5776;51.814;4.510;2022-10-16T07:00:55;101259.38;;;13.25;100.00
11440;BME280;5776;51.814;4.510;2022-10-16T07:03:21;101265.63;;;13.26;100.00
11440;BME280;5776;51.814;4.510;2022-10-16T07:05:47;101271.09;;;13.26;100.00
11440;BME280;5776;51.814;4.510;2022-10-16T07:08:13;101272.16;;;13.30;100.00
11440;BME280;5776;51.814;4.510;2022-10-16T07:10:39;101282.81;;;13.26;100.00
11440;BME280;5776;51.814;4.510;2022-10-16T07:13:05;101276.56;;;13.26;100.00
11440;BME280;5776;51.814;4.510;2022-10-16T07:15:33;101287.72;;;13.29;100.00
11440;BME280;5776;51.814;4.510;2022-10-16T07:17:59;101280.88;;;13.32;100.00
11440;BME280;5776;51.814;4.510;2022-10-16T07:20:25;101292.78;;;13.36;100.00
11440;BME280;5776;51.814;4.510;2022-10-16T07:22:51;101288.47;;;13.35;100.00
11440;BME280;5776;51.814;4.510;2022-10-16T07:25:17;101292.28;;;13.34;100.00
11440;BME280;5776;51.814;4.510;2022-10-16T07:27:43;101307.03;;;13.33;100.00
11440;BME280;5776;51.814;4.510;2022-10-16T07:30:09;101313.59;;;13.32;100.00
11440;BME280;5776;51.814;4.510;2022-10-16T07:32:36;101318.53;;;13.30;100.00
11440;BME280;5776;51.814;4.510;2022-10-16T07:35:02;101327.53;;;13.30;100.00
11440;BME280;5776;51.814;4.510;2022-10-16T07:37:28;101331.06;;;13.31;100.00
11440;BME280;5776;51.814;4.510;2022-10-16T07:39:54;101326.66;;;13.35;100.00
11440;BME280;5776;51.814;4.510;2022-10-16T07:42:20;101319.00;;;13.37;100.00
11440;BME280;5776;51.814;4.510;2022-10-16T07:44:45;101338.16;;;13.32;100.00
11440;BME280;5776;51.814;4.510;2022-10-16T07:47:11;101332.69;;;13.32;100.00
11440;BME280;5776;51.814;4.510;2022-10-16T07:49:37;101338.97;;;13.32;100.00
11440;BME280;5776;51.814;4.510;2022-10-16T07:52:03;101349.88;;;13.32;100.00
11440;BME280;5776;51.814;4.510;2022-10-16T07:54:29;101350.69;;;13.33;100.00
11440;BME280;5776;51.814;4.510;2022-10-16T07:56:55;101360.47;;;13.34;100.00
11440;BME280;5776;51.814;4.510;2022-10-16T07:59:21;101365.94;;;13.34;100.00
11440;BME280;5776;51.814;4.510;2022-10-16T08:01:48;101362.41;;;13.33;100.00
11440;BME280;5776;51.814;4.510;2022-10-16T08:04:14;101364.84;;;13.35;100.00
11440;BME280;5776;51.814;4.510;2022-10-16T08:06:41;101375.75;;;13.35;100.00
11440;BME280;5776;51.814;4.510;2022-10-16T08:09:08;101373.03;;;13.35;100.00
11440;BME280;5776;51.814;4.510;2022-10-16T08:11:34;101378.47;;;13.35;100.00
11440;BME280;5776;51.814;4.510;2022-10-16T08:14:00;101381.22;;;13.35;100.00
11440;BME280;5776;51.814;4.510;2022-10-16T08:16:26;101389.91;;;13.37;100.00
11440;BME280;5776;51.814;4.510;2022-10-16T08:18:52;101384.75;;;13.35;100.00
11440;BME280;5776;51.814;4.510;2022-10-16T08:21:20;101385.56;;;13.36;100.00
11440;BME280;5776;51.814;4.510;2022-10-16T08:23:46;101391.00;;;13.36;100.00
11440;BME280;5776;51.814;4.510;2022-10-16T08:26:13;101398.09;;;13.37;100.00
11440;BME280;5776;51.814;4.510;2022-10-16T08:28:39;101404.66;;;13.36;100.00
11440;BME280;5776;51.814;4.510;2022-10-16T08:31:10;101400.53;;;13.38;100.00
11440;BME280;5776;51.814;4.510;2022-10-16T08:33:37;101411.44;;;13.38;100.00
11440;BME280;5776;51.814;4.510;2022-10-16T08:36:04;101417.69;;;13.39;100.00
11440;BME280;5776;51.814;4.510;2022-10-16T08:38:31;101417.69;;;13.39;100.00
11440;BME280;5776;51.814;4.510;2022-10-16T08:49:02;101440.56;;;13.43;100.00
11440;BME280;5776;51.814;4.510;2022-10-16T08:51:34;101440.28;;;13.45;100.00
11440;BME280;5776;51.814;4.510;2022-10-16T08:54:06;101448.47;;;13.45;100.00
11440;BME280;5776;51.814;4.510;2022-10-16T08:56:40;101450.91;;;13.46;100.00
11440;BME280;5776;51.814;4.510;2022-10-16T08:59:10;101442.44;;;13.48;100.00
11440;BME280;5776;51.814;4.510;2022-10-16T09:01:42;101455.78;;;13.49;100.00
11440;BME280;5776;51.814;4.510;2022-10-16T09:09:26;101453.88;;;13.50;100.00
11440;BME280;5776;51.814;4.510;2022-10-16T09:12:03;101462.06;;;13.50;100.00
11440;BME280;5776;51.814;4.510;2022-10-16T09:14:47;101457.41;;;13.50;100.00
11440;BME280;5776;51.814;4.510;2022-10-16T09:22:34;101473.19;;;13.53;100.00
11440;BME280;5776;51.814;4.510;2022-10-16T09:25:01;101484.09;;;13.53;100.00
11440;BME280;5776;51.814;4.510;2022-10-16T09:27:37;101479.44;;;13.54;100.00
11440;BME280;5776;51.814;4.510;2022-10-16T09:30:18;101484.91;;;13.54;100.00
11440;BME280;5776;51.814;4.510;2022-10-16T09:32:45;101479.38;;;13.59;100.00
11440;BME280;5776;51.814;4.510;2022-10-16T09:35:18;101481.75;;;13.66;100.00
11440;BME280;5776;51.814;4.510;2022-10-16T09:37:47;101487.75;;;13.68;100.00
11440;BME280;5776;51.814;4.510;2022-10-16T09:40:38;101489.88;;;13.71;100.00
11440;BME280;5776;51.814;4.510;2022-10-16T09:45:43;101501.84;;;13.75;100.00
11440;BME280;5776;51.814;4.510;2022-10-16T09:48:12;101493.34;;;13.76;100.00
11440;BME280;5776;51.814;4.510;2022-10-16T09:50:39;101491.47;;;13.77;100.00
11440;BME280;5776;51.814;4.510;2022-10-16T09:53:05;101494.69;;;13.79;100.00
11440;BME280;5776;51.814;4.510;2022-10-16T09:55:31;101494.94;;;13.82;100.00
11440;BME280;5776;51.814;4.510;2022-10-16T09:57:57;101491.59;;;13.86;100.00
11440;BME280;5776;51.814;4.510;2022-10-16T10:00:24;101491.59;;;13.86;100.00
11440;BME280;5776;51.814;4.510;2022-10-16T10:02:50;101488.06;;;13.85;100.00
11440;BME280;5776;51.814;4.510;2022-10-16T10:05:22;101499.19;;;13.89;100.00
11440;BME280;5776;51.814;4.510;2022-10-16T10:07:57;101503.56;;;13.90;100.00
11440;BME280;5776;51.814;4.510;2022-10-16T10:10:29;101504.91;;;13.92;100.00
11440;BME280;5776;51.814;4.510;2022-10-16T10:12:56;101507.03;;;13.95;100.00
11440;BME280;5776;51.814;4.510;2022-10-16T10:15:23;101519.00;;;13.99;100.00
11440;BME280;5776;51.814;4.510;2022-10-16T10:17:52;101523.88;;;14.02;100.00
11440;BME280;5776;51.814;4.510;2022-10-16T10:22:49;101525.66;;;14.12;100.00
11440;BME280;5776;51.814;4.510;2022-10-16T10:31:03;101532.66;;;14.18;100.00
11440;BME280;5776;51.814;4.510;2022-10-16T10:33:45;101528.50;;;14.21;100.00
11440;BME280;5776;51.814;4.510;2022-10-16T10:36:25;101535.31;;;14.23;100.00
11440;BME280;5776;51.814;4.510;2022-10-16T10:39:15;101533.09;;;14.25;100.00
11440;BME280;5776;51.814;4.510;2022-10-16T10:47:01;101539.81;;;14.33;100.00
11440;BME280;5776;51.814;4.510;2022-10-16T10:50:02;101539.81;;;14.33;100.00
11440;BME280;5776;51.814;4.510;2022-10-16T10:58:10;101551.78;;;14.37;100.00
11440;BME280;5776;51.814;4.510;2022-10-16T11:06:25;101553.75;;;14.51;100.00
11440;BME280;5776;51.814;4.510;2022-10-16T11:09:00;101563.09;;;14.50;100.00
11440;BME280;5776;51.814;4.510;2022-10-16T11:14:04;101566.91;;;14.48;100.00
11440;BME280;5776;51.814;4.510;2022-10-16T11:16:37;101557.63;;;14.50;100.00
11440;BME280;5776;51.814;4.510;2022-10-16T11:19:54;101569.03;;;14.52;100.00
11440;BME280;5776;51.814;4.510;2022-10-16T11:27:21;101571.53;;;14.53;100.00
11440;BME280;5776;51.814;4.510;2022-10-16T11:30:00;101581.56;;;14.58;100.00
11440;BME280;5776;51.814;4.510;2022-10-16T11:32:38;101573.88;;;14.60;100.00
11440;BME280;5776;51.814;4.510;2022-10-16T11:35:19;101577.72;;;14.59;100.00
11440;BME280;5776;51.814;4.510;2022-10-16T11:37:49;101574.38;;;14.62;99.30
11440;BME280;5776;51.814;4.510;2022-10-16T11:42:52;101586.28;;;14.71;100.00
11440;BME280;5776;51.814;4.510;2022-10-16T11:45:37;101591.81;;;14.66;100.00
11440;BME280;5776;51.814;4.510;2022-10-16T11:48:27;101589.78;;;14.58;100.00
11440;BME280;5776;51.814;4.510;2022-10-16T11:53:59;101598.63;;;14.50;100.00
11440;BME280;5776;51.814;4.510;2022-10-16T11:56:29;101598.09;;;14.47;100.00
11440;BME280;5776;51.814;4.510;2022-10-16T12:07:03;101593.16;;;14.50;100.00
11440;BME280;5776;51.814;4.510;2022-10-16T12:09:32;101602.97;;;14.51;100.00
11440;BME280;5776;51.814;4.510;2022-10-16T12:12:00;101610.03;;;14.52;100.00
11440;BME280;5776;51.814;4.510;2022-10-16T12:17:01;101602.69;;;14.52;100.00
11440;BME280;5776;51.814;4.510;2022-10-16T12:19:29;101607.06;;;14.53;100.00
11440;BME280;5776;51.814;4.510;2022-10-16T12:21:57;101609.78;;;14.53;100.00
11440;BME280;5776;51.814;4.510;2022-10-16T12:24:36;101615.50;;;14.52;100.00
11440;BME280;5776;51.814;4.510;2022-10-16T12:27:05;101615.09;;;14.63;100.00
11440;BME280;5776;51.814;4.510;2022-10-16T12:29:39;101611.47;;;14.68;100.00
11440;BME280;5776;51.814;4.510;2022-10-16T12:35:00;101605.25;;;14.81;99.51
11440;BME280;5776;51.814;4.510;2022-10-16T12:37:34;101613.38;;;14.86;98.51
11440;BME280;5776;51.814;4.510;2022-10-16T12:40:23;101614.50;;;14.85;98.42
11440;BME280;5776;51.814;4.510;2022-10-16T12:42:50;101607.09;;;14.86;97.38
11440;BME280;5776;51.814;4.510;2022-10-16T12:45:31;101608.50;;;14.83;97.05
11440;BME280;5776;51.814;4.510;2022-10-16T12:47:59;101613.38;;;14.86;96.76
11440;BME280;5776;51.814;4.510;2022-10-16T12:50:35;101606.72;;;14.93;97.17
11440;BME280;5776;51.814;4.510;2022-10-16T12:53:03;101610.19;;;14.98;99.68
11440;BME280;5776;51.814;4.510;2022-10-16T13:09:40;101627.41;;;14.99;96.70
11440;BME280;5776;51.814;4.510;2022-10-16T13:12:34;101621.94;;;14.99;94.91
11440;BME280;5776;51.814;4.510;2022-10-16T13:15:34;101629.25;;;15.03;96.12
11440;BME280;5776;51.814;4.510;2022-10-16T13:18:15;101632.28;;;15.02;96.12
11440;BME280;5776;51.814;4.510;2022-10-16T13:26:46;101628.72;;;15.01;96.51
11440;BME280;5776;51.814;4.510;2022-10-16T13:29:15;101631.69;;;15.05;95.71
11440;BME280;5776;51.814;4.510;2022-10-16T13:31:42;101626.50;;;15.03;96.20
11440;BME280;5776;51.814;4.510;2022-10-16T13:34:14;101626.50;;;15.03;96.37
11440;BME280;5776;51.814;4.510;2022-10-16T13:36:45;101624.56;;;15.04;95.06
11440;BME280;5776;51.814;4.510;2022-10-16T13:41:40;101624.56;;;15.04;95.47
11440;BME280;5776;51.814;4.510;2022-10-16T13:44:15;101636.31;;;15.04;96.00
11440;BME280;5776;51.814;4.510;2022-10-16T13:46:43;101632.19;;;15.07;95.34
11440;BME280;5776;51.814;4.510;2022-10-16T13:49:16;101628.97;;;15.05;95.85
11440;BME280;5776;51.814;4.510;2022-10-16T13:51:57;101629.25;;;15.03;95.47
11440;BME280;5776;51.814;4.510;2022-10-16T13:54:23;101632.50;;;15.05;95.83
11440;BME280;5776;51.814;4.510;2022-10-16T13:56:50;101623.97;;;15.07;96.44
11440;BME280;5776;51.814;4.510;2022-10-16T13:59:27;101634.91;;;15.07;96.28
11440;BME280;5776;51.814;4.510;2022-10-16T14:01:58;101634.44;;;15.05;95.42
11440;BME280;5776;51.814;4.510;2022-10-16T14:04:28;101633.31;;;15.06;95.65
11440;BME280;5776;51.814;4.510;2022-10-16T14:06:57;101634.09;;;15.06;96.35
11440;BME280;5776;51.814;4.510;2022-10-16T14:09:26;101631.38;;;15.06;95.60
11440;BME280;5776;51.814;4.510;2022-10-16T14:12:00;101614.44;;;15.04;96.62
11440;BME280;5776;51.814;4.510;2022-10-16T14:14:33;101611.72;;;15.04;96.50
11440;BME280;5776;51.814;4.510;2022-10-16T14:17:00;101621.25;;;15.07;97.36
11440;BME280;5776;51.814;4.510;2022-10-16T14:19:28;101615.28;;;15.05;97.44
11440;BME280;5776;51.814;4.510;2022-10-16T14:21:56;101616.38;;;15.04;98.27
11440;BME280;5776;51.814;4.510;2022-10-16T14:24:27;101615.28;;;15.05;97.77
11440;BME280;5776;51.814;4.510;2022-10-16T14:26:57;101610.91;;;15.04;98.05
11440;BME280;5776;51.814;4.510;2022-10-16T14:29:25;101622.16;;;15.02;98.72
11440;BME280;5776;51.814;4.510;2022-10-16T14:31:56;101622.16;;;15.02;99.12
11440;BME280;5776;51.814;4.510;2022-10-16T14:34:35;101618.31;;;15.03;98.75
11440;BME280;5776;51.814;4.510;2022-10-16T14:37:16;101619.91;;;15.04;98.44
11440;BME280;5776;51.814;4.510;2022-10-16T14:39:50;101612.03;;;15.03;98.86
11440;BME280;5776;51.814;4.510;2022-10-16T14:42:18;101608.47;;;15.02;99.15
11440;BME280;5776;51.814;4.510;2022-10-16T14:44:46;101614.75;;;15.03;98.93
11440;BME280;5776;51.814;4.510;2022-10-16T14:47:13;101617.50;;;15.03;99.91
11440;BME280;5776;51.814;4.510;2022-10-16T14:49:42;101618.81;;;15.05;99.63
11440;BME280;5776;51.814;4.510;2022-10-16T14:52:10;101614.69;;;15.08;100.00